Time;durP1;ratioP1;P1;durP2;ratioP2;P2;SDS_P1;SDS_P2;PMS_P1;PMS_P2;Temp;Humidity;BMP_temperature;BMP_pressure;BME280_temperature;BME280_humidity;BME280_pressure;Samples;Min_cycle;Max_cycle;Signal;HPM_P1;HPM_P2
2021/12/21 00:01:20;;;;;;;6.17;1.47;;;-0.80;99.90;;;;;;5006052;28;20472;-85
2021/12/21 00:03:46;;;;;;;5.60;1.40;;;-0.80;99.90;;;;;;5004265;28;20060;-85
2021/12/21 00:06:12;;;;;;;3.47;1.17;;;-0.70;99.90;;;;;;5002612;28;20040;-83
2021/12/21 00:08:38;;;;;;;3.17;1.30;;;-0.70;99.90;;;;;;5022148;28;20030;-85
2021/12/21 00:11:03;;;;;;;5.87;1.20;;;-0.80;99.90;;;;;;5040927;23;20060;-84
2021/12/21 00:16:09;;;;;;;8.03;1.80;;;-0.80;99.90;;;;;;5019605;28;20026;-84
2021/12/21 00:23:46;;;;;;;4.17;1.20;;;-0.80;99.90;;;;;;5018509;28;20017;-86
2021/12/21 00:26:15;;;;;;;2.43;1.10;;;-0.80;99.90;;;;;;5018727;28;20044;-86
2021/12/21 00:29:01;;;;;;;6.77;1.03;;;-0.80;99.90;;;;;;5000458;28;20022;-86
2021/12/21 00:31:30;;;;;;;5.90;1.23;;;-0.70;99.90;;;;;;5018331;28;20032;-86
2021/12/21 00:33:56;;;;;;;6.70;1.50;;;-0.70;99.90;;;;;;5004023;28;20057;-86
2021/12/21 00:36:24;;;;;;;4.43;1.03;;;-0.70;99.90;;;;;;5032448;28;20083;-86
2021/12/21 00:38:52;;;;;;;3.67;0.90;;;-0.80;99.90;;;;;;5020494;28;20034;-86
2021/12/21 00:41:18;;;;;;;4.63;1.07;;;-0.80;99.90;;;;;;5013225;28;20052;-85
2021/12/21 00:43:45;;;;;;;4.23;1.20;;;-0.80;99.90;;;;;;5004897;28;20021;-86
2021/12/21 00:46:11;;;;;;;4.10;1.37;;;-0.80;99.90;;;;;;5013856;28;20027;-86
2021/12/21 00:48:40;;;;;;;3.77;1.03;;;-0.80;99.90;;;;;;5025982;28;20088;-86
2021/12/21 00:51:07;;;;;;;2.27;0.93;;;-0.80;99.90;;;;;;5004136;28;20026;-86
2021/12/21 00:53:36;;;;;;;9.60;1.80;;;-0.80;99.90;;;;;;5038501;28;20049;-87
2021/12/21 00:56:03;;;;;;;2.20;0.80;;;-0.80;99.90;;;;;;5024351;28;20120;-86
2021/12/21 00:58:29;;;;;;;2.90;0.73;;;-0.80;99.90;;;;;;5024409;28;20017;-86
2021/12/21 01:00:56;;;;;;;5.37;1.03;;;-0.80;99.90;;;;;;5020899;28;20646;-86
2021/12/21 01:03:21;;;;;;;4.53;1.50;;;-0.80;99.90;;;;;;5022063;28;20018;-86
2021/12/21 01:08:21;;;;;;;4.53;1.17;;;-0.80;99.90;;;;;;5031759;28;20037;-86
2021/12/21 01:13:26;;;;;;;9.03;1.63;;;-0.80;99.90;;;;;;5027585;28;20085;-86
2021/12/21 01:18:35;;;;;;;3.70;1.30;;;-0.80;99.90;;;;;;5032617;28;20037;-86
2021/12/21 01:21:16;;;;;;;4.17;1.10;;;-0.80;99.90;;;;;;5010717;28;20022;-86
2021/12/21 01:26:23;;;;;;;4.10;0.83;;;-0.90;99.90;;;;;;5022219;28;20038;-86
2021/12/21 01:29:19;;;;;;;2.30;1.10;;;-0.90;99.90;;;;;;5021053;28;20105;-86
2021/12/21 01:31:56;;;;;;;6.10;1.30;;;-0.80;99.90;;;;;;5021949;28;20022;-86
2021/12/21 01:34:34;;;;;;;3.10;1.03;;;-0.90;99.90;;;;;;5020742;28;20026;-86
2021/12/21 01:37:08;;;;;;;3.60;1.07;;;-0.90;99.90;;;;;;5016460;28;20093;-86
2021/12/21 01:42:17;;;;;;;4.90;0.87;;;-0.90;99.90;;;;;;5021112;28;20030;-86
2021/12/21 01:50:11;;;;;;;2.47;1.00;;;-0.90;99.90;;;;;;5022171;28;20057;-86
2021/12/21 01:52:37;;;;;;;3.97;1.17;;;-1.00;99.90;;;;;;5004472;28;20022;-86
2021/12/21 01:55:03;;;;;;;3.40;0.80;;;-1.00;99.90;;;;;;5021225;28;20033;-86
2021/12/21 01:57:29;;;;;;;3.83;1.17;;;-1.00;99.90;;;;;;5003753;28;20519;-86
2021/12/21 01:59:54;;;;;;;3.30;1.10;;;-1.00;99.90;;;;;;5003381;28;20029;-86
2021/12/21 02:02:20;;;;;;;3.97;1.23;;;-1.00;99.90;;;;;;5020914;28;20045;-87
2021/12/21 02:04:46;;;;;;;6.73;1.17;;;-1.10;99.90;;;;;;5002384;28;20089;-86
2021/12/21 02:07:15;;;;;;;7.20;1.60;;;-1.10;99.90;;;;;;5001961;28;20154;-87
2021/12/21 02:09:41;;;;;;;2.97;1.10;;;-1.10;99.90;;;;;;5012119;28;20479;-86
2021/12/21 02:12:13;;;;;;;8.07;1.30;;;-1.10;99.90;;;;;;5039650;28;20022;-86
2021/12/21 02:14:40;;;;;;;5.43;1.33;;;-1.10;99.90;;;;;;5038692;28;20479;-86
2021/12/21 02:20:18;;;;;;;3.43;1.27;;;-1.10;99.90;;;;;;5020333;28;20061;-86
2021/12/21 02:22:51;;;;;;;2.67;0.93;;;-1.10;99.90;;;;;;5019773;28;20018;-86
2021/12/21 02:25:38;;;;;;;3.83;1.40;;;-1.10;99.90;;;;;;5001006;28;20061;-87
2021/12/21 02:30:38;;;;;;;2.35;0.98;;;-1.10;99.90;;;;;;5018145;28;20056;-86
2021/12/21 02:33:04;;;;;;;3.53;1.20;;;-1.20;99.90;;;;;;5000969;28;20030;-86
2021/12/21 02:35:30;;;;;;;5.20;1.53;;;-1.10;99.90;;;;;;5003346;28;20063;-86
2021/12/21 02:37:56;;;;;;;2.47;1.03;;;-1.20;99.90;;;;;;5039120;28;20033;-87
2021/12/21 02:40:22;;;;;;;5.07;1.60;;;-1.20;99.90;;;;;;5006689;28;20037;-86
2021/12/21 02:42:47;;;;;;;3.70;1.30;;;-1.20;99.90;;;;;;5016635;28;20030;-86
2021/12/21 02:45:13;;;;;;;4.67;1.93;;;-1.20;99.90;;;;;;5002316;28;20030;-86
2021/12/21 02:47:39;;;;;;;5.60;1.27;;;-1.20;99.90;;;;;;5002426;28;20068;-86
2021/12/21 02:50:05;;;;;;;8.10;1.77;;;-1.30;99.90;;;;;;5002299;28;20056;-86
2021/12/21 02:52:31;;;;;;;4.10;1.40;;;-1.20;99.90;;;;;;5031717;28;20026;-86
2021/12/21 02:54:56;;;;;;;4.97;1.63;;;-1.20;99.90;;;;;;5040161;28;20025;-86
2021/12/21 02:57:22;;;;;;;4.40;2.10;;;-1.30;99.90;;;;;;5021927;28;20066;-86
2021/12/21 02:59:48;;;;;;;8.23;1.80;;;-1.30;99.90;;;;;;5018637;28;20048;-86
2021/12/21 03:02:13;;;;;;;4.07;0.93;;;-1.30;99.90;;;;;;5019425;28;20048;-86
2021/12/21 03:04:43;;;;;;;6.60;1.60;;;-1.30;99.90;;;;;;5001873;28;20022;-86
2021/12/21 03:09:42;;;;;;;3.90;1.43;;;-1.30;99.90;;;;;;5019057;28;20033;-86
2021/12/21 03:12:32;;;;;;;3.87;1.63;;;-1.30;99.90;;;;;;5019533;28;20014;-86
2021/12/21 03:14:57;;;;;;;5.23;1.57;;;-1.30;99.90;;;;;;5018722;28;20030;-86
2021/12/21 03:17:23;;;;;;;5.43;1.20;;;-1.30;99.90;;;;;;5019744;28;20046;-86
2021/12/21 03:19:49;;;;;;;3.20;1.40;;;-1.40;99.90;;;;;;5020863;28;20072;-86
2021/12/21 03:22:14;;;;;;;6.60;1.43;;;-1.40;99.90;;;;;;5023073;28;20120;-86
2021/12/21 03:24:43;;;;;;;3.87;1.47;;;-1.40;99.90;;;;;;5039300;28;20038;-86
2021/12/21 03:27:09;;;;;;;5.17;1.47;;;-1.40;99.90;;;;;;5031501;28;20425;-86
2021/12/21 03:29:35;;;;;;;3.33;1.03;;;-1.40;99.90;;;;;;5001618;28;20037;-86
2021/12/21 03:32:01;;;;;;;6.90;1.30;;;-1.40;99.90;;;;;;5010734;28;20029;-86
2021/12/21 03:34:27;;;;;;;7.00;2.00;;;-1.50;99.90;;;;;;5017233;28;20026;-86
2021/12/21 03:36:53;;;;;;;2.87;1.13;;;-1.50;99.90;;;;;;5001475;28;20080;-86
2021/12/21 03:39:20;;;;;;;6.43;1.30;;;-1.50;99.90;;;;;;5019670;28;20033;-86
2021/12/21 03:41:54;;;;;;;3.73;1.30;;;-1.50;99.90;;;;;;5021302;28;20029;-86
2021/12/21 03:44:20;;;;;;;7.47;1.50;;;-1.50;99.90;;;;;;5006584;28;20053;-86
2021/12/21 03:46:49;;;;;;;4.23;1.50;;;-1.50;99.90;;;;;;5004046;28;20018;-86
2021/12/21 03:51:54;;;;;;;4.40;1.50;;;-1.50;99.90;;;;;;5018177;28;20018;-86
2021/12/21 03:54:20;;;;;;;3.53;1.30;;;-1.50;99.90;;;;;;5018320;28;20037;-86
2021/12/21 03:56:49;;;;;;;2.93;1.40;;;-1.50;99.90;;;;;;5000393;28;20080;-86
2021/12/21 03:59:14;;;;;;;5.43;1.23;;;-1.60;99.90;;;;;;5027273;28;20033;-86
2021/12/21 04:01:40;;;;;;;4.20;1.17;;;-1.60;99.90;;;;;;5019532;28;20132;-86
2021/12/21 04:04:07;;;;;;;8.77;1.83;;;-1.60;99.90;;;;;;5016231;28;20036;-86
2021/12/21 04:06:33;;;;;;;2.53;1.10;;;-1.60;99.90;;;;;;5018431;28;20099;-86
2021/12/21 04:08:59;;;;;;;4.90;1.40;;;-1.60;99.90;;;;;;5019255;28;20030;-86
2021/12/21 04:11:24;;;;;;;6.37;1.40;;;-1.60;99.90;;;;;;5012571;28;20053;-86
2021/12/21 04:13:51;;;;;;;4.73;1.77;;;-1.60;99.90;;;;;;5018682;28;20033;-86
2021/12/21 04:16:16;;;;;;;9.27;1.67;;;-1.60;99.90;;;;;;5036734;28;20064;-85
2021/12/21 04:18:42;;;;;;;4.00;1.60;;;-1.60;99.90;;;;;;5020309;28;20140;-86
2021/12/21 04:21:11;;;;;;;4.63;1.13;;;-1.60;99.90;;;;;;5009132;28;20035;-86
2021/12/21 04:23:38;;;;;;;5.87;1.50;;;-1.60;99.90;;;;;;5015176;28;20068;-86
2021/12/21 04:26:03;;;;;;;3.87;1.70;;;-1.60;99.90;;;;;;4999879;28;20025;-86
2021/12/21 04:28:29;;;;;;;7.43;1.83;;;-1.60;99.90;;;;;;5001900;28;20092;-86
2021/12/21 04:30:54;;;;;;;6.17;1.90;;;-1.60;99.90;;;;;;5023193;28;20099;-86
2021/12/21 04:33:20;;;;;;;5.87;1.63;;;-1.60;99.90;;;;;;5004310;28;20018;-86
2021/12/21 04:35:46;;;;;;;4.40;1.40;;;-1.70;99.90;;;;;;5003582;28;20029;-86
2021/12/21 04:38:20;;;;;;;4.17;1.50;;;-1.70;99.90;;;;;;5013289;28;20143;-86
2021/12/21 04:40:49;;;;;;;6.57;1.83;;;-1.70;99.90;;;;;;5021068;28;20025;-86
2021/12/21 04:43:14;;;;;;;4.57;1.33;;;-1.70;99.90;;;;;;5025186;28;20072;-86
2021/12/21 04:45:40;;;;;;;2.97;1.30;;;-1.70;99.90;;;;;;5027226;28;20029;-86
2021/12/21 04:48:06;;;;;;;4.47;1.40;;;-1.70;99.90;;;;;;5014893;28;20097;-86
2021/12/21 04:50:32;;;;;;;8.77;1.77;;;-1.70;99.90;;;;;;5023240;28;20434;-86
2021/12/21 04:52:58;;;;;;;5.37;1.60;;;-1.70;99.90;;;;;;5002555;28;20037;-86
2021/12/21 04:55:24;;;;;;;2.63;0.90;;;-1.70;99.90;;;;;;5003699;28;20030;-85
2021/12/21 04:57:50;;;;;;;4.00;1.50;;;-1.70;99.90;;;;;;5028274;28;20034;-86
2021/12/21 05:00:16;;;;;;;3.50;1.30;;;-1.70;99.90;;;;;;5024039;28;20097;-86
2021/12/21 05:02:41;;;;;;;10.23;1.23;;;-1.70;99.90;;;;;;5026283;28;20535;-86
2021/12/21 05:05:07;;;;;;;2.77;1.03;;;-1.70;99.90;;;;;;5010808;28;20125;-85
2021/12/21 05:07:36;;;;;;;3.13;1.10;;;-1.80;99.90;;;;;;5022908;28;20041;-86
2021/12/21 05:10:03;;;;;;;4.93;1.47;;;-1.80;99.90;;;;;;5022259;28;20029;-86
2021/12/21 05:12:29;;;;;;;5.93;1.80;;;-1.80;99.90;;;;;;5019148;28;20079;-86
2021/12/21 05:14:56;;;;;;;4.50;1.30;;;-1.80;99.90;;;;;;5026966;28;20094;-86
2021/12/21 05:17:22;;;;;;;3.70;1.17;;;-1.80;99.90;;;;;;5023973;28;20034;-86
2021/12/21 05:19:48;;;;;;;3.43;1.27;;;-1.80;99.90;;;;;;5014652;28;20026;-86
2021/12/21 05:22:15;;;;;;;6.73;1.33;;;-1.80;99.90;;;;;;5019704;28;20025;-86
2021/12/21 05:24:44;;;;;;;5.30;1.63;;;-1.80;99.90;;;;;;5018729;28;20143;-86
2021/12/21 05:27:10;;;;;;;4.20;1.30;;;-1.80;99.90;;;;;;5018964;28;20053;-86
2021/12/21 05:29:37;;;;;;;3.10;1.57;;;-1.80;99.90;;;;;;5017933;28;20104;-86
2021/12/21 05:32:04;;;;;;;8.07;1.33;;;-1.90;99.90;;;;;;5016712;28;20138;-86
2021/12/21 05:34:30;;;;;;;4.63;1.47;;;-1.90;99.90;;;;;;5016270;28;20040;-86
2021/12/21 05:36:56;;;;;;;5.87;1.40;;;-1.90;99.90;;;;;;5036142;28;20072;-86
2021/12/21 05:39:25;;;;;;;3.87;1.20;;;-2.00;99.90;;;;;;5018195;28;20025;-86
2021/12/21 05:41:54;;;;;;;4.67;1.33;;;-1.90;99.90;;;;;;5018418;28;20030;-86
2021/12/21 05:44:22;;;;;;;2.97;1.10;;;-2.20;99.90;;;;;;5016232;28;20395;-86
2021/12/21 05:46:50;;;;;;;3.57;1.40;;;-1.80;99.90;;;;;;5013190;28;20021;-87
2021/12/21 05:49:16;;;;;;;3.27;1.40;;;-1.90;99.90;;;;;;5014548;28;20455;-86
2021/12/21 05:51:41;;;;;;;3.07;1.10;;;-1.80;99.90;;;;;;5032644;28;20021;-87
2021/12/21 05:54:07;;;;;;;4.60;1.40;;;-1.60;99.90;;;;;;5014022;28;20044;-87
2021/12/21 05:56:33;;;;;;;4.73;1.43;;;-1.90;99.90;;;;;;5032187;28;20029;-86
2021/12/21 05:59:02;;;;;;;3.33;1.17;;;-1.90;99.90;;;;;;5027343;28;20041;-86
2021/12/21 06:01:28;;;;;;;3.87;1.27;;;-1.90;99.90;;;;;;5010481;28;20030;-87
2021/12/21 06:03:53;;;;;;;4.47;1.63;;;-1.90;99.90;;;;;;5031738;28;20119;-86
2021/12/21 06:06:19;;;;;;;5.17;1.70;;;-1.90;99.90;;;;;;5013542;28;20053;-85
2021/12/21 06:08:47;;;;;;;3.93;1.30;;;-1.90;99.90;;;;;;5014969;28;20105;-86
2021/12/21 06:11:14;;;;;;;5.23;1.60;;;-2.00;99.90;;;;;;5024236;23;20074;-85
2021/12/21 06:14:00;;;;;;;3.87;1.40;;;-2.00;99.90;;;;;;4979419;28;20218;-84
2021/12/21 06:27:26;;;;;;;5.93;1.20;;;-0.20;99.90;;;;;;4989890;28;20614;-84
2021/12/21 06:29:52;;;;;;;3.03;1.00;;;-2.00;99.90;;;;;;4979169;28;20081;-83
2021/12/21 06:32:18;;;;;;;6.40;1.77;;;-2.00;99.90;;;;;;4997354;28;20060;-84
2021/12/21 06:34:44;;;;;;;4.87;1.40;;;-2.00;99.90;;;;;;5002817;28;20045;-84
2021/12/21 06:37:10;;;;;;;5.43;1.53;;;-2.00;99.90;;;;;;4983711;28;20033;-83
2021/12/21 06:39:36;;;;;;;6.73;1.40;;;-2.00;99.90;;;;;;4998154;28;20033;-84
2021/12/21 06:42:02;;;;;;;3.60;1.30;;;-2.10;99.90;;;;;;4994391;28;20030;-84
2021/12/21 06:44:30;;;;;;;3.00;1.33;;;-2.10;99.90;;;;;;4981708;28;20595;-85
2021/12/21 06:51:09;;;;;;;3.40;1.23;;;-2.10;99.90;;;;;;4976384;28;20034;-84
2021/12/21 06:52:38;;;;;;;5.30;1.47;;;-2.10;99.90;;;;;;4998784;28;20034;-85
2021/12/21 06:55:05;;;;;;;3.43;1.77;;;-2.10;99.90;;;;;;4995382;28;20018;-85
2021/12/21 06:57:31;;;;;;;5.80;1.47;;;-2.10;99.90;;;;;;4975640;28;20018;-85
2021/12/21 06:59:56;;;;;;;3.03;1.33;;;-2.10;99.90;;;;;;4989704;28;20046;-85
2021/12/21 07:02:22;;;;;;;5.53;1.40;;;-2.10;99.90;;;;;;4988443;28;20089;-85
2021/12/21 07:04:48;;;;;;;3.97;1.90;;;-2.10;99.90;;;;;;4979092;28;20049;-85
2021/12/21 07:07:17;;;;;;;3.73;1.33;;;-2.10;99.90;;;;;;4984249;28;20026;-84
2021/12/21 07:09:46;;;;;;;2.90;1.53;;;-2.00;99.90;;;;;;4990066;28;20075;-83
2021/12/21 07:20:25;;;;;;;3.03;1.10;;;-2.10;99.90;;;;;;5000628;28;20065;-84
2021/12/21 07:22:51;;;;;;;4.40;1.30;;;-2.10;99.90;;;;;;5001014;28;20038;-85
2021/12/21 07:25:17;;;;;;;5.30;1.30;;;-2.10;99.90;;;;;;4991138;28;20491;-84
2021/12/21 07:27:45;;;;;;;5.17;1.57;;;-2.10;99.90;;;;;;4994624;28;20025;-85
2021/12/21 07:30:11;;;;;;;2.53;1.10;;;-2.10;99.90;;;;;;4995209;28;20121;-85
2021/12/21 07:32:37;;;;;;;6.07;1.40;;;-2.10;99.90;;;;;;4988769;28;20062;-85
2021/12/21 07:35:04;;;;;;;3.67;1.07;;;-2.10;99.90;;;;;;4982730;28;20393;-86
2021/12/21 07:37:29;;;;;;;4.27;1.33;;;-2.10;99.90;;;;;;4958951;28;20620;-85
2021/12/21 07:39:58;;;;;;;2.70;1.20;;;-2.10;99.90;;;;;;4959692;28;20033;-85
2021/12/21 07:42:24;;;;;;;3.20;1.37;;;-2.10;99.90;;;;;;4995921;28;20034;-83
2021/12/21 07:44:50;;;;;;;4.67;1.30;;;-2.00;99.90;;;;;;5013932;28;20026;-83
2021/12/21 07:47:17;;;;;;;5.17;1.23;;;-2.00;99.90;;;;;;5012593;28;20030;-83
2021/12/21 07:49:43;;;;;;;6.50;1.43;;;-2.00;99.90;;;;;;4973218;28;20443;-83
2021/12/21 07:52:10;;;;;;;6.90;1.57;;;-2.00;99.90;;;;;;4981712;28;20113;-82
2021/12/21 07:54:36;;;;;;;2.57;1.30;;;-2.00;99.90;;;;;;4975464;28;20037;-85
2021/12/21 07:57:03;;;;;;;5.87;1.20;;;-1.90;99.90;;;;;;4994228;28;20450;-85
2021/12/21 07:59:32;;;;;;;2.93;1.13;;;-1.90;99.90;;;;;;4971744;28;20031;-86
2021/12/21 08:02:01;;;;;;;3.77;1.30;;;-1.90;99.90;;;;;;4956128;28;20111;-86
2021/12/21 08:04:28;;;;;;;4.97;1.63;;;-1.90;99.90;;;;;;4965160;28;20042;-86
2021/12/21 08:07:03;;;;;;;5.00;1.50;;;-1.80;99.90;;;;;;4971374;28;20027;-86
2021/12/21 08:09:38;;;;;;;3.53;1.40;;;-1.80;99.90;;;;;;4955142;28;20038;-87
2021/12/21 08:12:14;;;;;;;5.13;1.50;;;-1.80;99.90;;;;;;4956319;28;20039;-86
2021/12/21 08:15:02;;;;;;;9.40;1.60;;;-1.70;99.90;;;;;;4969487;28;20045;-86
2021/12/21 08:17:30;;;;;;;5.33;1.50;;;-1.60;99.90;;;;;;4971562;28;20088;-86
2021/12/21 08:19:56;;;;;;;3.87;1.10;;;-1.60;99.90;;;;;;4970424;28;20081;-87
2021/12/21 08:22:24;;;;;;;6.57;1.60;;;-1.40;99.90;;;;;;4985232;28;20473;-86
2021/12/21 08:24:50;;;;;;;4.73;1.50;;;-1.30;99.90;;;;;;4970364;28;20022;-86
2021/12/21 08:27:15;;;;;;;4.43;1.70;;;-1.20;99.90;;;;;;4967511;28;20030;-87
2021/12/21 08:29:41;;;;;;;3.67;1.30;;;-1.10;99.90;;;;;;4973631;28;20018;-86
2021/12/21 08:32:07;;;;;;;5.60;1.30;;;-1.10;99.90;;;;;;4971556;28;20033;-86
2021/12/21 08:34:32;;;;;;;4.47;1.37;;;-1.00;99.90;;;;;;4973389;28;20077;-87
2021/12/21 08:36:58;;;;;;;4.20;2.07;;;-1.00;99.90;;;;;;4972854;28;20097;-86
2021/12/21 08:39:24;;;;;;;3.53;1.60;;;-1.00;99.90;;;;;;4973058;28;20469;-86
2021/12/21 08:41:56;;;;;;;4.03;1.23;;;-0.90;99.90;;;;;;4973110;28;20019;-86
2021/12/21 08:44:26;;;;;;;3.30;1.25;;;-0.60;99.90;;;;;;4971828;28;20044;-86
2021/12/21 08:46:55;;;;;;;5.97;1.30;;;-0.30;99.90;;;;;;4978583;28;20027;-86
2021/12/21 08:49:21;;;;;;;4.43;1.63;;;0.00;99.90;;;;;;4983016;28;20166;-86
2021/12/21 08:51:46;;;;;;;5.20;1.40;;;0.20;99.90;;;;;;4955198;28;20558;-86
2021/12/21 08:54:13;;;;;;;3.83;1.50;;;0.20;99.90;;;;;;4955278;28;20542;-86
2021/12/21 08:56:40;;;;;;;3.40;1.10;;;0.10;99.90;;;;;;4955088;28;20054;-87
2021/12/21 08:59:07;;;;;;;4.40;1.53;;;-0.10;99.90;;;;;;4955335;28;20075;-87
2021/12/21 09:01:35;;;;;;;4.93;1.03;;;-0.10;99.90;;;;;;4955103;28;20023;-86
2021/12/21 09:04:01;;;;;;;5.17;1.37;;;-0.10;99.90;;;;;;4971533;28;20061;-87
2021/12/21 09:06:27;;;;;;;2.63;1.20;;;-0.20;99.90;;;;;;4960838;28;20026;-86
2021/12/21 09:08:53;;;;;;;4.10;1.40;;;-0.20;99.90;;;;;;4993886;28;20033;-87
2021/12/21 09:11:20;;;;;;;4.07;1.47;;;-0.30;99.90;;;;;;4993665;28;20562;-86
2021/12/21 09:13:45;;;;;;;4.53;1.20;;;-0.30;99.90;;;;;;4983364;28;20400;-86
2021/12/21 09:16:11;;;;;;;3.27;1.33;;;-0.30;99.90;;;;;;4972063;28;20031;-87
2021/12/21 09:18:37;;;;;;;2.93;1.33;;;-0.40;99.90;;;;;;4958716;28;20022;-87
2021/12/21 09:21:03;;;;;;;5.33;1.60;;;-0.30;99.90;;;;;;4958406;28;20034;-86
2021/12/21 09:23:28;;;;;;;4.97;2.33;;;-0.30;99.90;;;;;;4977142;28;20022;-85
2021/12/21 09:25:54;;;;;;;6.17;1.40;;;-0.30;99.90;;;;;;4971031;28;20537;-86
2021/12/21 09:28:20;;;;;;;3.73;1.40;;;-0.20;99.90;;;;;;4976254;28;20027;-85
2021/12/21 09:30:46;;;;;;;3.47;1.17;;;-0.30;99.90;;;;;;4974411;28;20033;-85
2021/12/21 09:33:12;;;;;;;4.23;1.33;;;-0.30;99.90;;;;;;4976349;28;20559;-85
2021/12/21 09:35:37;;;;;;;6.67;2.37;;;-0.30;99.90;;;;;;4970577;28;20022;-85
2021/12/21 09:38:04;;;;;;;5.03;1.40;;;-0.20;99.90;;;;;;4991844;28;20030;-85
2021/12/21 09:40:30;;;;;;;5.90;1.53;;;-0.20;99.90;;;;;;4976729;28;20026;-85
2021/12/21 09:42:58;;;;;;;5.30;1.63;;;-0.20;99.90;;;;;;4977378;28;20029;-85
2021/12/21 09:45:25;;;;;;;4.40;1.33;;;-0.20;99.90;;;;;;4999816;28;20045;-85
2021/12/21 09:47:53;;;;;;;3.97;1.80;;;-0.10;99.90;;;;;;4968579;28;20019;-84
2021/12/21 09:50:21;;;;;;;4.63;1.70;;;-0.10;99.90;;;;;;4974821;28;20027;-85
2021/12/21 09:52:47;;;;;;;3.67;2.00;;;-0.10;99.90;;;;;;4957848;28;20062;-84
2021/12/21 09:55:18;;;;;;;5.73;1.90;;;0.00;99.90;;;;;;4974641;28;20036;-84
2021/12/21 09:57:45;;;;;;;4.27;1.90;;;0.00;99.90;;;;;;4974437;28;20023;-84
2021/12/21 10:00:23;;;;;;;3.83;1.40;;;0.00;99.90;;;;;;4956019;28;20525;-86
2021/12/21 10:02:48;;;;;;;5.30;1.70;;;0.10;99.90;;;;;;4959632;28;20076;-84
2021/12/21 10:05:19;;;;;;;3.00;1.50;;;0.10;99.90;;;;;;4971143;28;20035;-85
2021/12/21 10:07:59;;;;;;;3.60;1.37;;;0.20;99.90;;;;;;4968525;28;20382;-84
2021/12/21 10:10:25;;;;;;;5.50;1.50;;;0.20;99.90;;;;;;4984997;28;20054;-84
2021/12/21 10:12:51;;;;;;;2.93;1.60;;;0.30;99.90;;;;;;4973141;28;20396;-84
2021/12/21 10:15:23;;;;;;;7.60;1.90;;;0.30;99.90;;;;;;4970355;28;20030;-84
2021/12/21 10:18:00;;;;;;;7.57;1.85;;;0.40;99.90;;;;;;4975950;28;20026;-84
2021/12/21 10:20:46;;;;;;;8.20;2.13;;;0.40;99.90;;;;;;4975776;28;20058;-85
2021/12/21 10:23:30;;;;;;;5.20;2.03;;;0.40;99.90;;;;;;4978283;28;20037;-83
2021/12/21 10:25:57;;;;;;;5.23;2.00;;;0.50;99.90;;;;;;4957991;28;20048;-84
2021/12/21 10:28:34;;;;;;;3.17;1.50;;;0.50;99.90;;;;;;4989032;28;20100;-84
2021/12/21 10:31:02;;;;;;;5.17;1.80;;;0.50;99.90;;;;;;4991732;28;20433;-84
2021/12/21 10:33:28;;;;;;;4.03;1.57;;;0.60;99.90;;;;;;4968800;28;20019;-84
2021/12/21 10:35:57;;;;;;;7.80;2.07;;;0.60;99.90;;;;;;4966178;28;20104;-83
2021/12/21 10:38:34;;;;;;;6.63;1.80;;;0.60;99.90;;;;;;4965821;28;20031;-83
2021/12/21 10:41:16;;;;;;;3.83;1.50;;;0.70;99.90;;;;;;4967952;28;20530;-85
2021/12/21 10:43:42;;;;;;;8.25;2.08;;;0.80;99.90;;;;;;4972241;28;20034;-85
2021/12/21 10:46:11;;;;;;;3.17;1.40;;;0.90;99.90;;;;;;4974863;28;20400;-84
2021/12/21 10:48:45;;;;;;;4.07;1.57;;;0.90;99.90;;;;;;4966510;28;20026;-85
2021/12/21 10:51:14;;;;;;;3.50;1.40;;;0.90;99.90;;;;;;4971373;28;20029;-84
2021/12/21 10:53:47;;;;;;;4.00;1.50;;;0.90;99.90;;;;;;4993032;28;20021;-86
2021/12/21 10:56:13;;;;;;;3.88;1.50;;;0.90;99.90;;;;;;4973637;28;20022;-84
2021/12/21 10:58:41;;;;;;;4.40;1.33;;;1.00;99.90;;;;;;4971639;28;20081;-83
2021/12/21 11:01:11;;;;;;;3.23;1.10;;;1.00;99.90;;;;;;4973792;28;20739;-84
2021/12/21 11:03:45;;;;;;;3.80;1.40;;;1.00;99.90;;;;;;4971006;28;20137;-84
2021/12/21 11:06:37;;;;;;;3.23;1.40;;;1.10;99.90;;;;;;4972678;28;20019;-85
2021/12/21 11:09:04;;;;;;;5.67;1.63;;;1.10;99.90;;;;;;4975258;28;20033;-84
2021/12/21 11:11:37;;;;;;;3.23;1.60;;;1.20;99.90;;;;;;4988217;28;20109;-84
2021/12/21 11:14:14;;;;;;;4.07;1.53;;;1.20;99.90;;;;;;4972307;28;20456;-84
2021/12/21 11:16:51;;;;;;;6.43;1.50;;;1.30;99.90;;;;;;4974487;28;20026;-84
2021/12/21 11:19:20;;;;;;;4.63;1.60;;;1.30;99.90;;;;;;4969464;28;20037;-84
2021/12/21 11:21:46;;;;;;;8.60;2.10;;;1.30;99.90;;;;;;4954294;28;20031;-85
2021/12/21 11:24:17;;;;;;;6.07;1.53;;;1.30;99.90;;;;;;4955012;28;20584;-84
2021/12/21 11:26:48;;;;;;;5.33;2.00;;;1.40;99.90;;;;;;4972398;28;20053;-84
2021/12/21 11:29:18;;;;;;;4.50;1.90;;;1.50;99.90;;;;;;4974100;28;20018;-84
2021/12/21 11:31:51;;;;;;;5.07;1.80;;;1.50;99.90;;;;;;4985372;28;20026;-83
2021/12/21 11:34:20;;;;;;;7.05;1.83;;;1.40;99.90;;;;;;4979776;28;20035;-85
2021/12/21 11:39:33;;;;;;;5.50;1.90;;;1.50;99.90;;;;;;4984788;28;20036;-84
2021/12/21 11:42:04;;;;;;;5.20;2.50;;;1.60;99.90;;;;;;4991182;28;20092;-85
2021/12/21 11:45:03;;;;;;;5.67;1.87;;;1.60;99.90;;;;;;4970143;28;20022;-85
2021/12/21 11:47:39;;;;;;;4.07;2.03;;;1.60;99.90;;;;;;4976712;28;20019;-84
2021/12/21 11:50:08;;;;;;;6.53;2.07;;;1.70;99.90;;;;;;4970634;28;20030;-85
2021/12/21 11:52:50;;;;;;;5.50;1.73;;;1.70;99.90;;;;;;4971347;28;20018;-85
2021/12/21 11:55:18;;;;;;;7.00;1.60;;;1.70;99.90;;;;;;4990744;28;20039;-85
2021/12/21 11:57:59;;;;;;;5.60;1.90;;;1.80;99.90;;;;;;4984303;28;20117;-85
2021/12/21 12:00:33;;;;;;;5.57;1.63;;;1.80;99.90;;;;;;5005731;28;20029;-85
2021/12/21 12:03:14;;;;;;;5.33;2.07;;;1.90;99.90;;;;;;4983836;28;20029;-84
2021/12/21 12:05:50;;;;;;;5.77;2.20;;;1.80;99.90;;;;;;4977270;28;20753;-85
2021/12/21 12:08:16;;;;;;;4.27;1.87;;;1.90;99.90;;;;;;4973979;28;20026;-85
2021/12/21 12:10:54;;;;;;;4.47;1.67;;;1.90;99.90;;;;;;4973216;28;20026;-85
2021/12/21 12:13:40;;;;;;;4.43;1.60;;;1.90;99.90;;;;;;4974289;28;20033;-84
2021/12/21 13:15:52;;;;;;;9.30;1.60;;;2.20;99.90;;;;;;1243937;23;20433;-89
2021/12/21 13:39:57;;;;;;;;;;;;;;;;;;;;;
2021/12/21 13:43:09;;;;;;;;;;;;;;;;;;;;;
2021/12/21 13:45:59;;;;;;;3.30;1.63;;;2.40;99.90;;;;;;4927428;29;20079;-91
2021/12/21 13:48:27;;;;;;;4.10;1.37;;;2.40;99.90;;;;;;4958782;28;20034;-89
2021/12/21 13:51:16;;;;;;;3.20;1.23;;;2.50;99.90;;;;;;5019820;28;20034;-89
2021/12/21 13:57:46;;;;;;;4.07;1.30;;;2.50;99.90;;;;;;5011141;28;20116;-90
2021/12/21 14:00:24;;;;;;;3.37;1.13;;;2.50;99.90;;;;;;4938204;29;20124;-90
2021/12/21 16:15:52;;;;;;;4.43;2.07;;;-0.20;99.90;;;;;;5023603;28;20060;-87
2021/12/21 16:21:00;;;;;;;7.27;2.13;;;-0.20;99.90;;;;;;4836713;26;20050;-87
2021/12/21 16:23:33;;;;;;;5.30;1.80;;;-0.20;99.90;;;;;;5002062;28;20036;-87
2021/12/21 16:26:23;;;;;;;3.70;1.45;;;0.00;99.90;;;;;;4974594;28;20193;-86
2021/12/21 16:29:24;;;;;;;;;;;;;;;;;;;;;
2021/12/21 16:32:12;;;;;;;;;;;;;;;;;;;;;
2021/12/21 16:44:12;;;;;;;4.33;2.20;;;0.00;99.90;;;;;;5034971;28;20064;-88
2021/12/21 16:46:40;;;;;;;7.33;2.17;;;0.00;99.90;;;;;;5020016;28;20034;-87
2021/12/21 16:50:03;;;;;;;;;;;;;;;;;;;;;
2021/12/21 16:53:14;;;;;;;;;;;;;;;;;;;;;
2021/12/21 16:56:02;;;;;;;7.90;1.80;;;0.20;99.90;;;;;;4864256;28;19911;-87
2021/12/21 16:59:47;;;;;;;;;;;;;;;;;;;;;
2021/12/21 17:18:55;;;;;;;;;;;;;;;;;;;;;
2021/12/21 17:25:53;;;;;;;4.17;1.50;;;0.20;99.90;;;;;;4926742;29;20107;-86
2021/12/21 17:32:23;;;;;;;4.47;1.88;;;0.10;99.90;;;;;;4898017;29;20092;-85
2021/12/21 17:35:37;;;;;;;;;;;;;;;;;;;;;
2021/12/21 17:42:06;;;;;;;4.50;2.23;;;0.00;99.90;;;;;;4861147;29;20041;-86
2021/12/21 17:48:40;;;;;;;7.43;2.47;;;-0.30;99.90;;;;;;4886190;29;20112;-90
2021/12/21 17:55:14;;;;;;;;;;;;;;;;;;;;;
2021/12/21 18:20:47;;;;;;;8.60;4.13;;;-0.70;99.90;;;;;;3312746;22;20054;-88
2021/12/21 18:23:13;;;;;;;8.80;4.00;;;-0.70;99.90;;;;;;5015696;28;20059;-88
2021/12/21 18:25:39;;;;;;;8.73;4.23;;;-0.80;99.90;;;;;;5032690;28;20442;-88
2021/12/21 18:28:06;;;;;;;7.93;4.07;;;-0.70;99.90;;;;;;5017708;28;20018;-88
2021/12/21 18:30:35;;;;;;;15.63;4.23;;;-0.80;99.90;;;;;;5039517;28;20116;-88
2021/12/21 18:33:05;;;;;;;8.23;4.60;;;-0.80;99.90;;;;;;4996817;28;20092;-88
2021/12/21 18:35:33;;;;;;;9.03;3.90;;;-1.00;99.90;;;;;;5011752;28;20031;-88
2021/12/21 18:38:03;;;;;;;8.63;4.20;;;-0.90;99.90;;;;;;4985475;28;20034;-88
2021/12/21 18:40:31;;;;;;;8.03;3.27;;;-0.90;99.90;;;;;;5004648;28;20027;-88
2021/12/21 18:43:04;;;;;;;9.93;3.77;;;-0.90;99.90;;;;;;4995828;28;20034;-88
2021/12/21 18:45:31;;;;;;;11.73;4.50;;;-0.90;99.90;;;;;;4995138;28;20036;-88
2021/12/21 18:47:57;;;;;;;8.67;3.50;;;-1.00;99.90;;;;;;4984129;28;20023;-87
2021/12/21 18:50:26;;;;;;;11.20;3.83;;;-1.00;99.90;;;;;;4997429;28;20500;-88
2021/12/21 18:53:18;;;;;;;9.30;4.27;;;-1.00;99.90;;;;;;5017270;28;20045;-89
2021/12/21 18:55:44;;;;;;;6.43;3.10;;;-1.10;99.90;;;;;;4990808;28;20061;-88
2021/12/21 18:58:10;;;;;;;9.17;4.10;;;-1.10;99.90;;;;;;4996214;28;20053;-89
2021/12/21 19:00:39;;;;;;;9.23;4.27;;;-1.10;99.90;;;;;;5016497;28;20022;-88
2021/12/21 19:03:08;;;;;;;9.23;4.20;;;-1.10;99.90;;;;;;5017723;28;20071;-88
2021/12/21 19:05:36;;;;;;;9.20;4.37;;;-1.10;99.90;;;;;;4999250;28;20032;-88
2021/12/21 19:08:03;;;;;;;9.07;4.30;;;-1.10;99.90;;;;;;4999011;28;20022;-88